createdAt,value
2022-08-05T00:00:23.248Z,98273.00
2022-08-05T00:02:56.855Z,98268.00
2022-08-05T00:06:04.859Z,98261.00
2022-08-05T00:08:34.624Z,98259.00
2022-08-05T00:11:27.959Z,98255.00
2022-08-05T00:14:02.528Z,98262.00
2022-08-05T00:16:53.372Z,98263.00
2022-08-05T00:19:33.512Z,98264.00
2022-08-05T00:22:11.758Z,98268.00
2022-08-05T00:24:42.927Z,98270.00
2022-08-05T00:27:16.767Z,98267.00
2022-08-05T00:29:47.828Z,98268.00
2022-08-05T00:32:20.055Z,98274.00
2022-08-05T00:35:06.269Z,98270.00
2022-08-05T00:37:53.398Z,98283.00
2022-08-05T00:40:29.239Z,98275.00
2022-08-05T00:43:02.575Z,98286.00
2022-08-05T00:45:43.727Z,98289.00
2022-08-05T00:48:27.401Z,98294.00
2022-08-05T00:51:08.920Z,98294.00
2022-08-05T00:54:02.288Z,98310.00
2022-08-05T00:56:34.100Z,98315.00
2022-08-05T00:59:06.944Z,98326.00
2022-08-05T01:01:48.343Z,98330.00
2022-08-05T01:04:29.711Z,98344.00
2022-08-05T01:07:01.052Z,98354.00
2022-08-05T01:09:36.353Z,98351.00
2022-08-05T01:12:18.087Z,98350.00
2022-08-05T01:15:05.717Z,98349.00
2022-08-05T01:18:11.986Z,98344.00
2022-08-05T01:21:23.482Z,98351.00
2022-08-05T01:24:30.934Z,98353.00
2022-08-05T01:28:01.536Z,98359.00
2022-08-05T01:30:38.336Z,98356.00
2022-08-05T01:33:11.658Z,98360.00
2022-08-05T01:35:53.433Z,98368.00
2022-08-05T01:38:29.235Z,98369.00
2022-08-05T01:41:02.030Z,98375.00
2022-08-05T01:43:33.726Z,98364.00
2022-08-05T01:46:07.116Z,98391.00
2022-08-05T01:48:49.816Z,98399.00
2022-08-05T01:51:22.143Z,98395.00
2022-08-05T01:53:58.713Z,98405.00
2022-08-05T01:58:10.722Z,98391.00
2022-08-05T01:59:28.154Z,98397.00
2022-08-05T02:02:02.979Z,98399.00
2022-08-05T02:04:40.630Z,98398.00
2022-08-05T02:07:19.983Z,98395.00
2022-08-05T02:09:53.501Z,98392.00
2022-08-05T02:12:55.614Z,98393.00
2022-08-05T02:15:34.896Z,98393.00
2022-08-05T02:18:31.407Z,98391.00
2022-08-05T02:21:19.644Z,98385.00
2022-08-05T02:23:55.555Z,98389.00
2022-08-05T02:26:36.226Z,98391.00
2022-08-05T02:29:21.349Z,98390.00
2022-08-05T02:32:00.031Z,98389.00
2022-08-05T02:34:37.502Z,98400.00
2022-08-05T02:37:14.270Z,98397.00
2022-08-05T02:39:51.513Z,98391.00
2022-08-05T02:42:27.384Z,98402.00
2022-08-05T02:45:00.444Z,98402.00
2022-08-05T02:47:58.644Z,98401.00
2022-08-05T02:50:27.595Z,98400.00
2022-08-05T02:53:00.025Z,98402.00
2022-08-05T02:55:52.188Z,98401.00
2022-08-05T02:58:26.728Z,98400.00
2022-08-05T03:01:02.507Z,98409.00
2022-08-05T03:04:02.801Z,98401.00
2022-08-05T03:06:56.305Z,98405.00
2022-08-05T03:09:36.537Z,98403.00
2022-08-05T03:12:10.196Z,98412.00
2022-08-05T03:14:46.027Z,98410.00
2022-08-05T03:17:17.206Z,98424.00
2022-08-05T03:19:48.517Z,98423.00
2022-08-05T03:22:31.917Z,98436.00
2022-08-05T03:25:33.974Z,98427.00
2022-08-05T03:27:58.983Z,98434.00
2022-08-05T03:30:34.815Z,98430.00
2022-08-05T03:33:07.486Z,98444.00
2022-08-05T03:35:41.295Z,98443.00
2022-08-05T03:38:14.553Z,98440.00
2022-08-05T03:40:47.200Z,98448.00
2022-08-05T03:44:08.789Z,98429.00
2022-08-05T03:46:10.091Z,98426.00
2022-08-05T03:48:41.209Z,98424.00
2022-08-05T03:52:48.600Z,98431.00
2022-08-05T03:55:50.443Z,98428.00
2022-08-05T03:57:29.228Z,98420.00
2022-08-05T04:00:16.506Z,98411.00
2022-08-05T04:02:57.928Z,98398.00
2022-08-05T04:05:34.795Z,98396.00
2022-08-05T04:08:14.567Z,98409.00
2022-08-05T04:11:03.197Z,98410.00
2022-08-05T04:13:50.564Z,98418.00
2022-08-05T04:16:32.319Z,98421.00
2022-08-05T04:19:04.380Z,98424.00
2022-08-05T04:22:08.965Z,98448.00
2022-08-05T04:24:33.129Z,98428.00
2022-08-05T04:27:04.277Z,98427.00
2022-08-05T04:29:35.726Z,98466.00
2022-08-05T04:32:08.809Z,98473.00
2022-08-05T04:34:42.826Z,98485.00
2022-08-05T04:37:14.401Z,98501.00
2022-08-05T04:39:45.381Z,98509.00
2022-08-05T04:42:25.554Z,98518.00
2022-08-05T04:44:56.624Z,98529.00
2022-08-05T04:47:27.658Z,98534.00
2022-08-05T04:50:12.138Z,98541.00
2022-08-05T04:52:44.580Z,98554.00
2022-08-05T04:55:15.842Z,98569.00
2022-08-05T04:57:54.204Z,98568.00
2022-08-05T05:00:25.489Z,98568.00
2022-08-05T05:03:03.736Z,98565.00
2022-08-05T05:06:39.776Z,98592.00
2022-08-05T05:08:30.301Z,98608.00
2022-08-05T05:11:01.560Z,98629.00
2022-08-05T05:13:40.977Z,98624.00
2022-08-05T05:16:15.479Z,98631.00
2022-08-05T05:19:17.721Z,98632.00
2022-08-05T05:21:43.693Z,98632.00
2022-08-05T05:24:17.695Z,98632.00
2022-08-05T05:26:51.801Z,98638.00
2022-08-05T05:29:22.953Z,98640.00
2022-08-05T05:31:54.757Z,98642.00
2022-08-05T05:34:28.225Z,98644.00
2022-08-05T05:36:59.181Z,98642.00
2022-08-05T05:39:31.529Z,98648.00
2022-08-05T05:42:06.166Z,98647.00
2022-08-05T05:44:43.006Z,98652.00
2022-08-05T05:47:22.160Z,98666.00
2022-08-05T05:50:02.019Z,98663.00
2022-08-05T05:52:38.112Z,98671.00
2022-08-05T05:55:14.522Z,98679.00
2022-08-05T05:57:52.106Z,98688.00
2022-08-05T06:00:27.808Z,98691.00
2022-08-05T06:03:40.079Z,98685.00
2022-08-05T06:05:56.067Z,98698.00
2022-08-05T06:08:32.461Z,98691.00
2022-08-05T06:11:04.143Z,98691.00
2022-08-05T06:13:40.924Z,98695.00
2022-08-05T06:16:28.553Z,98698.00
2022-08-05T06:19:05.854Z,98688.00
2022-08-05T06:21:42.898Z,98683.00
2022-08-05T06:24:25.759Z,98674.00
2022-08-05T06:26:58.662Z,98670.00
2022-08-05T06:29:46.768Z,98665.00
2022-08-05T06:32:25.343Z,98669.00
2022-08-05T06:35:05.987Z,98657.00
2022-08-05T06:37:57.826Z,98666.00
2022-08-05T06:40:32.640Z,98678.00
2022-08-05T06:43:03.945Z,98678.00
2022-08-05T06:45:44.634Z,98676.00
2022-08-05T06:48:55.249Z,98669.00
2022-08-05T06:51:22.794Z,98666.00
2022-08-05T06:54:04.481Z,98668.00
2022-08-05T06:56:35.707Z,98688.00
2022-08-05T06:59:09.744Z,98677.00
2022-08-05T07:01:42.895Z,98686.00
2022-08-05T07:04:19.075Z,98680.00
2022-08-05T07:06:50.579Z,98682.00
2022-08-05T07:09:21.617Z,98689.00
2022-08-05T07:11:56.411Z,98713.00
2022-08-05T07:14:49.722Z,98700.00
2022-08-05T07:18:00.753Z,98720.00
2022-08-05T07:20:33.124Z,98713.00
2022-08-05T07:23:04.844Z,98723.00
2022-08-05T07:25:55.983Z,98726.00
2022-08-05T07:28:27.337Z,98725.00
2022-08-05T07:30:58.739Z,98724.00
2022-08-05T07:33:36.983Z,98743.00
2022-08-05T07:36:20.814Z,98714.00
2022-08-05T07:38:55.702Z,98734.00
2022-08-05T07:42:09.396Z,98723.00
2022-08-05T07:44:18.991Z,98730.00
2022-08-05T07:46:50.646Z,98727.00
2022-08-05T07:49:22.311Z,98724.00
2022-08-05T07:51:55.096Z,98721.00
2022-08-05T07:54:31.111Z,98731.00
2022-08-05T07:57:22.402Z,98723.00
2022-08-05T07:59:55.087Z,98717.00
2022-08-05T08:02:30.950Z,98716.00
2022-08-05T08:05:02.485Z,98725.00
2022-08-05T08:07:39.660Z,98718.00
2022-08-05T08:10:26.856Z,98726.00
2022-08-05T08:12:58.587Z,98728.00
2022-08-05T08:16:33.480Z,98718.00
2022-08-05T08:18:21.298Z,98732.00
2022-08-05T08:21:02.897Z,98728.00
2022-08-05T08:24:02.637Z,98726.00
2022-08-05T08:26:29.754Z,98733.00
2022-08-05T08:29:29.391Z,98723.00
2022-08-05T08:31:53.888Z,98728.00
2022-08-05T08:34:30.463Z,98720.00
2022-08-05T08:37:05.433Z,98720.00
2022-08-05T08:39:37.340Z,98721.00
2022-08-05T08:42:32.381Z,98711.00
2022-08-05T08:45:24.220Z,98706.00
2022-08-05T08:48:12.457Z,98693.00
2022-08-05T08:51:07.588Z,98701.00
2022-08-05T08:53:44.306Z,98689.00
2022-08-05T08:56:17.569Z,98683.00
2022-08-05T08:58:49.674Z,98688.00
2022-08-05T09:01:21.727Z,98697.00
2022-08-05T09:03:57.423Z,98694.00
2022-08-05T09:06:33.116Z,98684.00
2022-08-05T09:09:07.532Z,98685.00
2022-08-05T09:11:51.202Z,98684.00
2022-08-05T09:14:58.880Z,98682.00
2022-08-05T09:17:43.088Z,98667.00
2022-08-05T09:20:08.685Z,98666.00
2022-08-05T09:23:09.783Z,98659.00
2022-08-05T09:26:06.442Z,98661.00
2022-08-05T09:28:39.981Z,98660.00
2022-08-05T09:31:44.111Z,98648.00
2022-08-05T09:34:10.373Z,98644.00
2022-08-05T09:36:54.905Z,98638.00
2022-08-05T09:39:44.761Z,98639.00
2022-08-05T09:42:24.118Z,98644.00
2022-08-05T09:45:17.549Z,98643.00
2022-08-05T09:47:59.519Z,98635.00
2022-08-05T09:50:37.730Z,98638.00
2022-08-05T09:53:22.831Z,98631.00
2022-08-05T09:56:04.683Z,98639.00
2022-08-05T09:58:36.231Z,98637.00
2022-08-05T10:01:22.398Z,98638.00
2022-08-05T10:04:10.646Z,98648.00
2022-08-05T10:06:59.426Z,98640.00
2022-08-05T10:09:31.036Z,98635.00
2022-08-05T10:12:18.742Z,98630.00
2022-08-05T10:15:22.228Z,98627.00
2022-08-05T10:18:16.781Z,98621.00
2022-08-05T10:20:56.967Z,98620.00
2022-08-05T10:23:56.521Z,98615.00
2022-08-05T10:26:32.328Z,98622.00
2022-08-05T10:29:04.878Z,98621.00
2022-08-05T10:32:52.563Z,98616.00
2022-08-05T10:34:31.314Z,98620.00
2022-08-05T10:37:02.552Z,98619.00
2022-08-05T10:40:03.699Z,98609.00
2022-08-05T10:42:33.741Z,98619.00
2022-08-05T10:45:20.913Z,98619.00
2022-08-05T10:48:29.185Z,98607.00
2022-08-05T10:51:22.490Z,98613.00
2022-08-05T10:54:05.921Z,98610.00
2022-08-05T10:56:58.518Z,98609.00
2022-08-05T11:00:02.189Z,98601.00
2022-08-05T11:02:38.193Z,98610.00
2022-08-05T11:05:10.782Z,98617.00
2022-08-05T11:08:17.079Z,98610.00
2022-08-05T11:11:01.012Z,98611.00
2022-08-05T11:13:54.880Z,98622.00
2022-08-05T11:16:47.868Z,98616.00
2022-08-05T11:20:17.073Z,98623.00
2022-08-05T11:22:50.010Z,98613.00
2022-08-05T11:26:06.073Z,98615.00
2022-08-05T11:28:40.500Z,98620.00
2022-08-05T11:31:11.387Z,98623.00
2022-08-05T11:33:51.641Z,98619.00
2022-08-05T11:36:52.897Z,98616.00
2022-08-05T11:39:55.611Z,98613.00
2022-08-05T11:42:40.293Z,98615.00
2022-08-05T11:45:14.435Z,98616.00
2022-08-05T11:48:11.528Z,98625.00
2022-08-05T11:50:42.916Z,98618.00
2022-08-05T11:53:14.098Z,98614.00
2022-08-05T11:56:02.772Z,98612.00
2022-08-05T11:58:42.522Z,98610.00
2022-08-05T12:01:25.006Z,98603.00
2022-08-05T12:03:57.380Z,98597.00
2022-08-05T12:06:32.773Z,98602.00
2022-08-05T12:09:05.677Z,98600.00
2022-08-05T12:11:39.682Z,98599.00
2022-08-05T12:14:11.782Z,98597.00
2022-08-05T12:16:49.270Z,98590.00
2022-08-05T12:20:25.918Z,98591.00
2022-08-05T12:22:20.215Z,98589.00
2022-08-05T12:24:56.228Z,98590.00
2022-08-05T12:27:33.069Z,98591.00
2022-08-05T12:30:15.409Z,98595.00
2022-08-05T12:32:53.828Z,98595.00
2022-08-05T12:35:37.268Z,98591.00
2022-08-05T12:38:11.049Z,98581.00
2022-08-05T12:40:44.108Z,98586.00
2022-08-05T12:43:20.644Z,98590.00
2022-08-05T12:45:56.503Z,98592.00
2022-08-05T12:48:32.961Z,98584.00
2022-08-05T12:52:10.273Z,98575.00
2022-08-05T12:54:14.811Z,98577.00
2022-08-05T12:56:51.302Z,98582.00
2022-08-05T13:00:08.689Z,98578.00
2022-08-05T13:02:30.182Z,98575.00
2022-08-05T13:05:07.093Z,98576.00
2022-08-05T13:07:57.546Z,98570.00
2022-08-05T13:10:33.275Z,98571.00
2022-08-05T13:13:08.955Z,98575.00
2022-08-05T13:15:50.897Z,98571.00
2022-08-05T13:18:23.960Z,98561.00
2022-08-05T13:20:55.252Z,98568.00
2022-08-05T13:23:26.962Z,98569.00
2022-08-05T13:26:01.189Z,98560.00
2022-08-05T13:28:32.490Z,98561.00
2022-08-05T13:31:11.119Z,98559.00
2022-08-05T13:34:22.810Z,98561.00
2022-08-05T13:36:37.221Z,98570.00
2022-08-05T13:39:24.790Z,98557.00
2022-08-05T13:42:02.299Z,98550.00
2022-08-05T13:44:34.726Z,98552.00
2022-08-05T13:47:09.028Z,98543.00
2022-08-05T13:49:45.158Z,98535.00
2022-08-05T13:52:29.025Z,98531.00
2022-08-05T13:55:01.144Z,98540.00
2022-08-05T13:57:51.530Z,98537.00
2022-08-05T14:00:26.849Z,98534.00
2022-08-05T14:03:01.110Z,98527.00
2022-08-05T14:06:24.360Z,98518.00
2022-08-05T14:08:27.716Z,98534.00
2022-08-05T14:10:59.783Z,98534.00
2022-08-05T14:13:39.190Z,98522.00
2022-08-05T14:16:11.741Z,98524.00
2022-08-05T14:18:49.736Z,98527.00
2022-08-05T14:22:07.218Z,98529.00
2022-08-05T14:24:15.053Z,98528.00
2022-08-05T14:27:08.393Z,98531.00
2022-08-05T14:29:41.756Z,98529.00
2022-08-05T14:32:16.082Z,98534.00
2022-08-05T14:34:57.998Z,98537.00
2022-08-05T14:37:48.034Z,98531.00
2022-08-05T14:40:20.114Z,98541.00
2022-08-05T14:42:56.203Z,98543.00
2022-08-05T14:45:27.201Z,98544.00
2022-08-05T14:48:05.054Z,98551.00
2022-08-05T14:50:40.769Z,98554.00
2022-08-05T14:53:12.634Z,98544.00
2022-08-05T14:55:47.291Z,98542.00
2022-08-05T14:58:23.413Z,98548.00
2022-08-05T15:00:58.800Z,98556.00
2022-08-05T15:03:33.849Z,98548.00
2022-08-05T15:06:14.850Z,98543.00
2022-08-05T15:09:01.330Z,98552.00
2022-08-05T15:11:52.884Z,98557.00
2022-08-05T15:14:34.525Z,98572.00
2022-08-05T15:17:44.208Z,98587.00
2022-08-05T15:20:00.004Z,98628.00
2022-08-05T15:22:31.023Z,98650.00
2022-08-05T15:25:13.763Z,98637.00
2022-08-05T15:27:52.334Z,98589.00
2022-08-05T15:30:23.530Z,98613.00
2022-08-05T15:32:57.500Z,98622.00
2022-08-05T15:35:28.952Z,98616.00
2022-08-05T15:38:32.299Z,98608.00
2022-08-05T15:41:22.059Z,98622.00
2022-08-05T15:43:49.372Z,98621.00
2022-08-05T15:46:21.371Z,98623.00
2022-08-05T15:49:00.763Z,98626.00
2022-08-05T15:52:13.130Z,98617.00
2022-08-05T15:54:35.071Z,98620.00
2022-08-05T15:57:08.696Z,98631.00
2022-08-05T15:59:40.783Z,98629.00
2022-08-05T16:02:14.730Z,98623.00
2022-08-05T16:04:50.941Z,98616.00
2022-08-05T16:07:22.828Z,98613.00
2022-08-05T16:09:54.378Z,98612.00
2022-08-05T16:12:25.742Z,98613.00
2022-08-05T16:14:57.228Z,98627.00
2022-08-05T16:17:28.329Z,98625.00
2022-08-05T16:20:11.774Z,98624.00
2022-08-05T16:22:43.156Z,98636.00
2022-08-05T16:25:14.153Z,98631.00
2022-08-05T16:28:01.039Z,98630.00
2022-08-05T16:30:36.380Z,98633.00
2022-08-05T16:33:07.404Z,98645.00
2022-08-05T16:35:42.338Z,98653.00
2022-08-05T16:38:18.560Z,98648.00
2022-08-05T16:41:01.392Z,98656.00
2022-08-05T16:43:35.100Z,98654.00
2022-08-05T16:46:23.752Z,98658.00
2022-08-05T16:48:55.832Z,98660.00
2022-08-05T16:51:30.636Z,98664.00
2022-08-05T16:54:17.398Z,98662.00
2022-08-05T16:56:51.905Z,98672.00
2022-08-05T16:59:24.994Z,98671.00
2022-08-05T17:01:59.313Z,98673.00
2022-08-05T17:04:31.977Z,98683.00
2022-08-05T17:07:03.307Z,98687.00
2022-08-05T17:09:57.527Z,98691.00
2022-08-05T17:12:51.012Z,98698.00
2022-08-05T17:15:20.988Z,98689.00
2022-08-05T17:17:55.216Z,98687.00
2022-08-05T17:20:26.608Z,98684.00
2022-08-05T17:22:58.955Z,98683.00
2022-08-05T17:25:39.208Z,98696.00
2022-08-05T17:28:15.316Z,98691.00
2022-08-05T17:30:51.731Z,98694.00
2022-08-05T17:33:23.385Z,98686.00
2022-08-05T17:36:09.075Z,98691.00
2022-08-05T17:38:41.184Z,98720.00
2022-08-05T17:42:16.640Z,98701.00
2022-08-05T17:44:03.653Z,98710.00
2022-08-05T17:46:34.555Z,98713.00
2022-08-05T17:49:05.565Z,98717.00
2022-08-05T17:51:40.492Z,98714.00
2022-08-05T17:54:11.784Z,98720.00
2022-08-05T17:56:45.405Z,98733.00
2022-08-05T17:59:22.698Z,98737.00
2022-08-05T18:01:54.412Z,98737.00
2022-08-05T18:04:27.194Z,98745.00
2022-08-05T18:07:01.840Z,98752.00
2022-08-05T18:09:59.817Z,98756.00
2022-08-05T18:12:24.704Z,98749.00
2022-08-05T18:14:56.096Z,98766.00
2022-08-05T18:17:58.926Z,98771.00
2022-08-05T18:20:18.074Z,98775.00
2022-08-05T18:22:54.668Z,98770.00
2022-08-05T18:25:32.782Z,98778.00
2022-08-05T18:28:05.520Z,98783.00
2022-08-05T18:30:39.115Z,98783.00
2022-08-05T18:33:13.496Z,98791.00
2022-08-05T18:36:01.332Z,98786.00
2022-08-05T18:38:38.505Z,98812.00
2022-08-05T18:41:53.481Z,98820.00
2022-08-05T18:44:06.523Z,98822.00
2022-08-05T18:46:41.272Z,98828.00
2022-08-05T18:49:44.593Z,98835.00
2022-08-05T18:52:33.681Z,98852.00
2022-08-05T18:55:10.203Z,98874.00
2022-08-05T18:57:43.590Z,98862.00
2022-08-05T19:00:28.477Z,98870.00
2022-08-05T19:03:03.786Z,98878.00
2022-08-05T19:06:11.039Z,98871.00
2022-08-05T19:08:30.503Z,98885.00
2022-08-05T19:11:04.867Z,98877.00
2022-08-05T19:13:38.651Z,98892.00
2022-08-05T19:16:22.002Z,98879.00
2022-08-05T19:18:57.128Z,98883.00
2022-08-05T19:21:29.574Z,98895.00
2022-08-05T19:24:12.990Z,98891.00
2022-08-05T19:26:54.761Z,98892.00
2022-08-05T19:29:36.006Z,98890.00
2022-08-05T19:32:11.451Z,98894.00
2022-08-05T19:34:54.500Z,98895.00
2022-08-05T19:37:34.972Z,98903.00
2022-08-05T19:40:18.221Z,98921.00
2022-08-05T19:43:05.357Z,98930.00
2022-08-05T19:45:38.036Z,98924.00
2022-08-05T19:48:25.522Z,98929.00
2022-08-05T19:50:57.063Z,98927.00
2022-08-05T19:54:04.340Z,98934.00
2022-08-05T19:56:29.567Z,98935.00
2022-08-05T19:59:51.073Z,98953.00
2022-08-05T20:01:56.771Z,98952.00
2022-08-05T20:04:29.319Z,98961.00
2022-08-05T20:07:02.184Z,98953.00
2022-08-05T20:09:53.894Z,98955.00
2022-08-05T20:12:25.167Z,98967.00
2022-08-05T20:14:56.386Z,98980.00
2022-08-05T20:17:29.182Z,98971.00
2022-08-05T20:20:10.957Z,98980.00
2022-08-05T20:22:44.159Z,98986.00
2022-08-05T20:25:18.057Z,98993.00
2022-08-05T20:27:49.002Z,98985.00
2022-08-05T20:30:21.137Z,98981.00
2022-08-05T20:32:57.519Z,98984.00
2022-08-05T20:35:28.566Z,99002.00
2022-08-05T20:38:05.357Z,99004.00
2022-08-05T20:40:38.153Z,99001.00
2022-08-05T20:43:17.453Z,99010.00
2022-08-05T20:46:10.209Z,99024.00
2022-08-05T20:48:43.516Z,99034.00
2022-08-05T20:51:15.818Z,99035.00
2022-08-05T20:53:56.772Z,99036.00
2022-08-05T20:56:31.835Z,99032.00
2022-08-05T20:59:14.026Z,99029.00
2022-08-05T21:01:52.086Z,99024.00
2022-08-05T21:04:23.091Z,99040.00
2022-08-05T21:06:58.188Z,99025.00
2022-08-05T21:09:29.503Z,99042.00
2022-08-05T21:12:09.346Z,99050.00
2022-08-05T21:14:42.154Z,99053.00
2022-08-05T21:17:14.766Z,99058.00
2022-08-05T21:19:47.979Z,99064.00
2022-08-05T21:22:23.438Z,99060.00
2022-08-05T21:24:54.958Z,99077.00
2022-08-05T21:27:27.195Z,99081.00
2022-08-05T21:29:58.698Z,99099.00
2022-08-05T21:32:33.064Z,99101.00
2022-08-05T21:35:08.461Z,99115.00
2022-08-05T21:37:52.888Z,99109.00
2022-08-05T21:40:25.423Z,99112.00
2022-08-05T21:42:59.077Z,99105.00
2022-08-05T21:45:56.845Z,99099.00
2022-08-05T21:48:21.227Z,99104.00
2022-08-05T21:50:55.617Z,99110.00
2022-08-05T21:53:28.249Z,99100.00
2022-08-05T21:56:06.069Z,99097.00
2022-08-05T21:58:56.929Z,99105.00
2022-08-05T22:01:29.010Z,99109.00
2022-08-05T22:04:06.686Z,99104.00
2022-08-05T22:06:50.322Z,99112.00
2022-08-05T22:09:21.831Z,99108.00
2022-08-05T22:11:53.367Z,99112.00
2022-08-05T22:14:35.204Z,99112.00
2022-08-05T22:17:08.888Z,99116.00
2022-08-05T22:20:02.849Z,99115.00
2022-08-05T22:22:31.437Z,99127.00
2022-08-05T22:25:27.718Z,99135.00
2022-08-05T22:28:12.374Z,99147.00
2022-08-05T22:30:56.825Z,99155.00
2022-08-05T22:33:57.820Z,99163.00
2022-08-05T22:36:24.104Z,99155.00
2022-08-05T22:38:55.341Z,99155.00
2022-08-05T22:42:10.992Z,99166.00
2022-08-05T22:44:19.022Z,99167.00
2022-08-05T22:46:50.234Z,99180.00
2022-08-05T22:50:17.212Z,99184.00
2022-08-05T22:52:22.881Z,99185.00
2022-08-05T22:55:19.041Z,99188.00
2022-08-05T22:57:53.510Z,99196.00
2022-08-05T23:00:26.503Z,99203.00
2022-08-05T23:02:58.338Z,99210.00
2022-08-05T23:05:29.303Z,99200.00
2022-08-05T23:08:07.076Z,99201.00
2022-08-05T23:10:43.289Z,99209.00
2022-08-05T23:13:14.244Z,99209.00
2022-08-05T23:15:45.702Z,99219.00
2022-08-05T23:18:22.941Z,99209.00
2022-08-05T23:20:53.955Z,99205.00
2022-08-05T23:23:24.941Z,99215.00
2022-08-05T23:26:00.873Z,99233.00
2022-08-05T23:28:32.505Z,99223.00
2022-08-05T23:31:17.323Z,99232.00
2022-08-05T23:34:06.002Z,99232.00
2022-08-05T23:36:39.688Z,99233.00
2022-08-05T23:39:31.988Z,99245.00
2022-08-05T23:42:14.173Z,99243.00
2022-08-05T23:44:45.698Z,99246.00
2022-08-05T23:47:25.519Z,99248.00
2022-08-05T23:49:56.532Z,99260.00
2022-08-05T23:52:30.527Z,99240.00
2022-08-05T23:55:09.898Z,99240.00
2022-08-05T23:57:41.880Z,99241.00
